Time;durP1;ratioP1;P1;durP2;ratioP2;P2;SDS_P1;SDS_P2;PMS_P1;PMS_P2;Temp;Humidity;BMP_temperature;BMP_pressure;BME280_temperature;BME280_humidity;BME280_pressure;Samples;Min_cycle;Max_cycle;Signal;HPM_P1;HPM_P2
2022/08/26 00:01:40;;;;;;;2.97;2.78;;;;;;;24.88;nan;99320.97;5059180;28;20033;-81
2022/08/26 00:23:01;;;;;;;3.50;3.00;;;;;;;24.50;nan;99331.50;5566118;22;20170;-80
2022/08/26 00:25:26;;;;;;;4.93;2.88;;;;;;;24.43;nan;99333.50;5060445;28;20036;-81
2022/08/26 00:27:52;;;;;;;3.92;3.33;;;;;;;24.35;nan;99336.56;5027653;28;20017;-81
2022/08/26 00:30:29;;;;;;;5.43;3.47;;;;;;;24.24;nan;99329.31;5061207;28;20404;-80
2022/08/26 01:26:52;;;;;;;3.25;2.95;;;;;;;23.88;nan;99331.19;4769926;30;20094;-80
2022/08/26 01:30:26;;;;;;;7.10;3.30;;;;;;;23.85;nan;99328.97;4768462;29;20134;-79
2022/08/26 01:36:57;;;;;;;4.00;3.40;;;;;;;23.81;nan;99330.47;4786625;29;20155;-79
2022/08/26 01:45:24;;;;;;;3.83;2.85;;;;;;;23.84;nan;99324.63;5163751;22;20087;-79
2022/08/26 01:48:19;;;;;;;4.03;3.60;;;;;;;23.87;nan;99326.84;4988013;28;20592;-79
2022/08/26 02:02:04;;;;;;;6.05;3.80;;;;;;;23.64;nan;99324.13;4951817;28;20041;-82
2022/08/26 02:36:27;;;;;;;4.53;3.95;;;;;;;22.74;nan;99315.28;4827383;29;20047;-81
2022/08/26 02:48:05;;;;;;;4.57;3.70;;;;;;;22.36;nan;99302.94;4811407;29;20084;-81
2022/08/26 03:06:29;;;;;;;3.60;3.30;;;;;;;22.18;nan;99302.09;4783648;29;20506;-80
2022/08/26 03:13:00;;;;;;;4.03;3.45;;;;;;;22.34;nan;99306.88;4758398;30;20055;-81
2022/08/26 03:15:41;;;;;;;4.45;3.72;;;;;;;22.40;nan;99304.09;4754753;30;20047;-80
2022/08/26 03:22:14;;;;;;;4.30;3.90;;;;;;;22.50;nan;99305.47;4794385;29;20488;-80
2022/08/26 03:49:03;;;;;;;;;;;;;;;;;;;;;
2022/08/26 03:56:26;;;;;;;7.18;3.67;;;;;;;22.23;nan;99316.50;4828739;29;20072;-77
2022/08/26 03:58:52;;;;;;;5.22;4.32;;;;;;;22.19;nan;99320.69;4801209;29;20054;-79
2022/08/26 04:17:48;;;;;;;;;;;;;;;;;;;;;
2022/08/26 04:20:39;;;;;;;4.80;4.38;;;;;;;21.56;nan;99307.41;4779235;30;20054;-78
2022/08/26 04:23:05;;;;;;;5.20;4.38;;;;;;;21.49;nan;99314.72;4801907;29;20051;-76
2022/08/26 04:25:31;;;;;;;5.05;4.55;;;;;;;21.55;nan;99313.00;4839186;29;20050;-77
2022/08/26 04:27:56;;;;;;;5.70;4.38;;;;;;;21.61;nan;99312.97;4856073;29;20455;-78
2022/08/26 04:30:40;;;;;;;7.65;4.90;;;;;;;21.61;nan;99307.59;4855377;29;20049;-78
2022/08/26 04:33:06;;;;;;;6.22;4.07;;;;;;;21.57;nan;99311.75;4883480;29;20136;-79
2022/08/26 04:35:33;;;;;;;5.28;4.65;;;;;;;21.57;nan;99311.75;4983779;23;20045;-79
2022/08/26 04:38:24;;;;;;;4.30;3.90;;;;;;;21.60;nan;99313.19;5010671;28;20396;-79
2022/08/26 04:41:15;;;;;;;5.95;4.25;;;;;;;21.53;nan;99310.53;5040511;28;20037;-79
2022/08/26 04:44:41;;;;;;;4.10;3.80;;;;;;;21.45;nan;99318.84;5042267;28;20040;-79
2022/08/26 04:47:06;;;;;;;4.82;4.35;;;;;;;21.50;nan;99324.38;4988459;28;20094;-78
2022/08/26 04:49:44;;;;;;;4.85;4.45;;;;;;;21.58;nan;99324.13;4987479;28;20042;-79
2022/08/26 04:52:33;;;;;;;4.68;4.28;;;;;;;21.55;nan;99324.59;4980009;28;20511;-80
2022/08/26 04:55:42;;;;;;;6.68;3.90;;;;;;;21.54;nan;99328.31;4978891;28;20044;-78
2022/08/26 04:58:07;;;;;;;6.00;4.70;;;;;;;21.54;nan;99332.84;4984226;28;20093;-77
2022/08/26 05:00:55;;;;;;;6.57;4.20;;;;;;;21.63;nan;99329.66;4987671;28;20156;-78
2022/08/26 05:06:47;;;;;;;5.10;4.60;;;;;;;21.49;nan;99338.88;4945979;29;20074;-78
2022/08/26 05:09:13;;;;;;;5.50;4.90;;;;;;;21.40;nan;99336.66;4940995;29;20134;-76
2022/08/26 05:11:39;;;;;;;5.15;4.72;;;;;;;21.39;nan;99333.16;4945680;29;20070;-77
2022/08/26 05:14:05;;;;;;;8.48;4.93;;;;;;;21.43;nan;99326.31;4949422;29;20520;-77
2022/08/26 05:16:30;;;;;;;5.60;4.72;;;;;;;21.45;nan;99326.91;4948768;29;20794;-77
2022/08/26 05:18:56;;;;;;;6.80;4.70;;;;;;;21.47;nan;99319.47;4949173;29;20047;-77
2022/08/26 05:21:25;;;;;;;7.10;5.35;;;;;;;21.50;nan;99329.75;4948769;29;20043;-76
2022/08/26 05:23:53;;;;;;;6.35;5.15;;;;;;;21.40;nan;99332.13;4971401;28;20051;-75
2022/08/26 05:26:19;;;;;;;6.28;5.10;;;;;;;21.43;nan;99334.38;4999842;28;20049;-77
2022/08/26 05:28:45;;;;;;;6.93;4.90;;;;;;;21.48;nan;99334.53;5007133;28;20124;-78
2022/08/26 05:31:15;;;;;;;8.00;5.40;;;;;;;21.35;nan;99340.00;5009849;28;20180;-78
2022/08/26 05:33:45;;;;;;;8.80;5.13;;;;;;;21.39;nan;99341.19;5007885;28;20041;-78
2022/08/26 05:36:15;;;;;;;5.57;4.85;;;;;;;21.45;nan;99337.66;5024137;28;20034;-78
2022/08/26 05:38:42;;;;;;;6.00;5.50;;;;;;;21.49;nan;99336.19;5023048;28;20042;-79
2022/08/26 05:41:20;;;;;;;7.22;5.63;;;;;;;21.54;nan;99344.41;5030826;28;20553;-76
2022/08/26 05:43:46;;;;;;;7.55;5.57;;;;;;;21.56;nan;99339.63;5059911;28;20528;-78
2022/08/26 05:46:12;;;;;;;6.97;5.45;;;;;;;21.61;nan;99350.56;5073145;28;20119;-77
2022/08/26 05:48:39;;;;;;;6.45;5.70;;;;;;;21.65;nan;99354.44;5026558;28;20029;-79
2022/08/26 05:51:07;;;;;;;8.65;5.90;;;;;;;21.64;nan;99366.22;5072863;28;20024;-78
2022/08/26 05:53:37;;;;;;;7.20;5.93;;;;;;;21.72;nan;99367.00;5072633;28;20040;-79
2022/08/26 05:56:04;;;;;;;6.55;5.85;;;;;;;21.76;nan;99373.56;5072524;28;20578;-77
2022/08/26 05:58:42;;;;;;;6.25;5.75;;;;;;;21.82;nan;99381.56;5072473;28;20032;-81
2022/08/26 06:01:28;;;;;;;5.43;4.93;;;;;;;21.88;nan;99387.91;5061179;28;20484;-78
2022/08/26 06:03:56;;;;;;;6.15;4.75;;;;;;;21.91;nan;99387.50;5069189;28;20082;-81
2022/08/26 06:06:26;;;;;;;6.10;4.80;;;;;;;21.82;nan;99392.31;5072483;28;20059;-79
2022/08/26 06:08:52;;;;;;;6.95;6.25;;;;;;;21.61;nan;99398.88;5072739;28;20064;-80
2022/08/26 06:11:24;;;;;;;6.20;5.72;;;;;;;21.63;nan;99398.66;5072177;28;20021;-79
2022/08/26 06:13:50;;;;;;;9.10;5.65;;;;;;;21.65;nan;99389.34;5072828;28;20029;-80
2022/08/26 06:16:18;;;;;;;10.65;6.32;;;;;;;21.69;nan;99388.91;5072527;28;20020;-81
2022/08/26 06:18:45;;;;;;;7.07;6.40;;;;;;;21.79;nan;99397.31;5063842;28;20104;-80
2022/08/26 06:21:18;;;;;;;6.55;5.88;;;;;;;21.85;nan;99399.13;5054992;28;20029;-80
2022/08/26 06:26:31;;;;;;;6.68;6.07;;;;;;;21.99;nan;99387.22;5072159;28;20510;-77
2022/08/26 06:28:57;;;;;;;8.30;6.03;;;;;;;22.06;nan;99390.69;5072527;28;20032;-80
2022/08/26 06:35:11;;;;;;;6.88;5.88;;;;;;;22.12;nan;99383.59;4977417;28;20130;-82
2022/08/26 06:37:37;;;;;;;7.45;6.15;;;;;;;22.19;nan;99379.00;5013404;28;20155;-79
2022/08/26 06:40:03;;;;;;;9.05;6.00;;;;;;;22.25;nan;99378.94;5071780;28;20159;-79
2022/08/26 06:42:29;;;;;;;8.30;6.45;;;;;;;22.27;nan;99382.19;5071256;28;20484;-78
2022/08/26 06:44:57;;;;;;;7.32;6.15;;;;;;;22.35;nan;99373.88;5072236;28;20032;-78
2022/08/26 06:47:26;;;;;;;13.60;6.00;;;;;;;22.46;nan;99378.50;5071805;28;20039;-79
2022/08/26 06:49:52;;;;;;;10.48;5.72;;;;;;;22.59;nan;99374.00;5064112;28;20029;-79
2022/08/26 06:52:17;;;;;;;6.25;5.18;;;;;;;22.73;nan;99375.53;5072408;28;20108;-83
2022/08/26 06:54:43;;;;;;;5.50;5.00;;;;;;;22.81;nan;99378.72;5071672;28;20055;-75
2022/08/26 06:57:10;;;;;;;5.88;4.70;;;;;;;22.89;nan;99377.59;5052906;28;20043;-75
2022/08/26 06:59:35;;;;;;;6.75;5.15;;;;;;;22.95;nan;99382.09;5061781;28;20572;-74
2022/08/26 07:02:01;;;;;;;5.38;4.85;;;;;;;22.98;nan;99378.09;5071981;28;20037;-74
2022/08/26 07:04:27;;;;;;;5.38;4.93;;;;;;;23.03;nan;99371.00;5071745;28;20089;-74
2022/08/26 07:06:53;;;;;;;5.75;5.18;;;;;;;23.12;nan;99369.63;5072113;28;20086;-73
2022/08/26 07:09:21;;;;;;;9.52;5.88;;;;;;;23.16;nan;99370.81;5070826;28;20039;-73
2022/08/26 07:11:47;;;;;;;7.75;5.25;;;;;;;23.13;nan;99376.66;5068802;28;20556;-73
2022/08/26 07:14:12;;;;;;;5.30;4.80;;;;;;;23.16;nan;99370.81;5070381;28;20029;-73
2022/08/26 07:16:39;;;;;;;6.15;4.75;;;;;;;23.16;nan;99370.81;5067658;28;20040;-73
2022/08/26 07:19:05;;;;;;;8.98;5.47;;;;;;;23.19;nan;99367.69;5052932;28;20028;-73
2022/08/26 07:21:31;;;;;;;9.05;4.50;;;;;;;23.26;nan;99360.34;5070556;28;20173;-72
2022/08/26 07:23:57;;;;;;;5.20;4.53;;;;;;;23.37;nan;99360.59;5070369;28;20519;-74
2022/08/26 07:26:28;;;;;;;5.97;4.85;;;;;;;23.47;nan;99355.50;5070033;28;20536;-72
2022/08/26 07:28:56;;;;;;;5.70;5.00;;;;;;;23.52;nan;99352.91;5062731;28;20526;-72
2022/08/26 07:31:23;;;;;;;7.57;4.95;;;;;;;23.57;nan;99350.34;5070084;28;20036;-72
2022/08/26 07:33:49;;;;;;;7.43;6.07;;;;;;;23.60;nan;99350.72;5062954;28;20033;-73
2022/08/26 07:36:17;;;;;;;7.18;5.80;;;;;;;23.58;nan;99350.13;5063514;28;20042;-72
2022/08/26 07:38:44;;;;;;;5.78;5.28;;;;;;;23.60;nan;99356.13;5069056;28;20032;-72
2022/08/26 07:41:12;;;;;;;6.30;5.80;;;;;;;23.64;nan;99356.47;5059395;28;20036;-73
2022/08/26 07:43:38;;;;;;;9.20;5.45;;;;;;;23.69;nan;99356.56;5066186;28;20477;-73
2022/08/26 07:46:05;;;;;;;6.53;5.90;;;;;;;23.76;nan;99354.59;5070383;28;20028;-71
2022/08/26 07:48:31;;;;;;;8.18;6.70;;;;;;;23.83;nan;99349.94;5050266;28;20082;-71
2022/08/26 07:50:57;;;;;;;7.63;6.95;;;;;;;23.89;nan;99354.38;5070439;28;20056;-72
2022/08/26 07:53:22;;;;;;;9.20;6.60;;;;;;;23.92;nan;99359.28;5069645;28;20078;-71
2022/08/26 07:55:48;;;;;;;13.25;8.00;;;;;;;23.91;nan;99354.97;5070320;28;20029;-71
2022/08/26 07:58:15;;;;;;;9.88;7.90;;;;;;;23.86;nan;99348.63;5070400;28;20028;-71
2022/08/26 08:00:41;;;;;;;11.43;8.10;;;;;;;23.94;nan;99345.59;5069905;28;20064;-72
2022/08/26 08:03:06;;;;;;;11.98;7.75;;;;;;;23.99;nan;99341.13;5069934;28;20109;-72
2022/08/26 08:05:33;;;;;;;9.40;7.50;;;;;;;24.06;nan;99333.75;5069877;28;20075;-73
2022/08/26 08:08:01;;;;;;;19.75;8.35;;;;;;;24.17;nan;99333.97;5070129;28;20032;-70
2022/08/26 08:10:27;;;;;;;10.07;7.55;;;;;;;24.26;nan;99329.91;5064562;28;20033;-72
2022/08/26 08:12:55;;;;;;;8.40;7.55;;;;;;;24.32;nan;99331.66;5058009;28;20045;-72
2022/08/26 08:15:25;;;;;;;13.30;7.40;;;;;;;24.40;nan;99332.09;5065650;28;20584;-72
2022/08/26 08:17:51;;;;;;;12.27;8.15;;;;;;;24.46;nan;99327.63;5067916;28;20040;-72
2022/08/26 08:20:17;;;;;;;11.77;9.63;;;;;;;24.47;nan;99327.41;5065527;28;20111;-72
2022/08/26 08:22:43;;;;;;;11.98;9.43;;;;;;;24.42;nan;99337.25;5066725;28;20542;-72
2022/08/26 08:25:10;;;;;;;9.98;9.02;;;;;;;24.46;nan;99330.31;5057233;28;20045;-73
2022/08/26 08:27:37;;;;;;;10.23;8.70;;;;;;;24.50;nan;99334.22;5063286;28;20029;-72
2022/08/26 08:30:05;;;;;;;8.60;7.80;;;;;;;24.57;nan;99329.47;5056117;28;21350;-72
2022/08/26 08:32:30;;;;;;;9.98;8.57;;;;;;;24.62;nan;99329.59;5055890;28;20500;-71
2022/08/26 08:34:58;;;;;;;8.15;7.38;;;;;;;24.67;nan;99335.09;5050160;28;20048;-70
2022/08/26 08:37:23;;;;;;;11.00;8.13;;;;;;;24.73;nan;99339.53;5060503;28;20033;-72
2022/08/26 08:39:49;;;;;;;9.52;7.43;;;;;;;24.73;nan;99338.72;5065815;28;20124;-71
2022/08/26 08:42:37;;;;;;;10.38;8.35;;;;;;;24.74;nan;99341.16;5064871;28;20038;-71
2022/08/26 08:45:29;;;;;;;9.65;8.32;;;;;;;24.78;nan;99339.63;5063399;28;20422;-69
2022/08/26 08:47:58;;;;;;;8.93;7.40;;;;;;;24.84;nan;99346.78;5049496;28;20514;-71
2022/08/26 08:51:10;;;;;;;9.65;8.40;;;;;;;24.72;nan;99346.00;5057744;28;20020;-72
2022/08/26 08:53:46;;;;;;;9.40;8.55;;;;;;;24.70;nan;99348.09;5024753;28;20048;-71
2022/08/26 08:56:33;;;;;;;9.63;7.10;;;;;;;24.75;nan;99348.19;5068198;28;20549;-71
2022/08/26 08:59:02;;;;;;;9.75;8.88;;;;;;;24.90;nan;99347.72;5069294;28;20180;-71
2022/08/26 09:01:50;;;;;;;12.38;8.50;;;;;;;25.03;nan;99354.72;5063838;28;20032;-71
2022/08/26 09:04:38;;;;;;;10.27;8.68;;;;;;;25.14;nan;99356.53;5055411;28;20481;-72
2022/08/26 09:07:08;;;;;;;11.52;9.30;;;;;;;25.22;nan;99358.84;5066820;28;20501;-91
2022/08/26 09:09:43;;;;;;;9.32;8.43;;;;;;;25.31;nan;99362.78;5055457;28;20029;-93
2022/08/26 09:12:14;;;;;;;10.23;9.23;;;;;;;25.36;nan;99368.28;5050996;28;20420;-82
2022/08/26 09:14:40;;;;;;;12.63;9.80;;;;;;;25.18;nan;99361.22;5057861;28;20041;-81
2022/08/26 09:17:31;;;;;;;12.15;10.48;;;;;;;25.21;nan;99362.63;5061881;28;20481;-84
2022/08/26 09:20:13;;;;;;;12.63;9.63;;;;;;;25.21;nan;99358.00;5067358;28;20064;-84
2022/08/26 09:22:38;;;;;;;11.88;9.75;;;;;;;25.27;nan;99358.94;5064690;28;20031;-87
2022/08/26 09:25:08;;;;;;;10.27;9.10;;;;;;;25.37;nan;99351.03;5059362;28;20037;-89
2022/08/26 09:27:41;;;;;;;12.85;9.57;;;;;;;25.42;nan;99361.91;5047584;28;20704;-87
2022/08/26 09:30:09;;;;;;;11.40;9.05;;;;;;;25.50;nan;99356.13;5062170;28;20438;-84
2022/08/26 09:32:35;;;;;;;12.43;10.43;;;;;;;25.54;nan;99353.72;5063044;28;20120;-89
2022/08/26 09:35:08;;;;;;;10.48;9.30;;;;;;;25.56;nan;99349.78;5054804;28;20096;-90
2022/08/26 09:37:39;;;;;;;12.02;9.90;;;;;;;25.59;nan;99338.47;5045133;28;20041;-84
2022/08/26 09:40:15;;;;;;;9.48;8.50;;;;;;;25.64;nan;99352.03;5039889;28;20036;-87
2022/08/26 09:42:40;;;;;;;9.35;8.35;;;;;;;25.68;nan;99350.47;5044843;28;20392;-84
2022/08/26 09:45:10;;;;;;;10.63;8.93;;;;;;;25.73;nan;99354.34;5043613;28;20029;-86
2022/08/26 09:47:39;;;;;;;11.68;10.40;;;;;;;25.63;nan;99345.00;5044542;28;20451;-81
2022/08/26 09:50:18;;;;;;;10.10;8.77;;;;;;;25.61;nan;99349.84;5040526;28;20395;-82
2022/08/26 09:52:43;;;;;;;10.43;9.52;;;;;;;25.62;nan;99348.75;5046034;28;20108;-81
2022/08/26 09:55:20;;;;;;;10.20;8.75;;;;;;;25.62;nan;99346.06;5038811;28;20133;-84
2022/08/26 09:57:48;;;;;;;11.13;9.43;;;;;;;25.63;nan;99349.56;5038098;28;20025;-80
2022/08/26 10:00:43;;;;;;;8.75;7.97;;;;;;;25.72;nan;99336.50;5031938;28;20068;-72
2022/08/26 10:03:11;;;;;;;8.88;7.97;;;;;;;25.75;nan;99338.69;5037030;28;20497;-72
2022/08/26 10:05:53;;;;;;;11.20;8.57;;;;;;;25.76;nan;99332.22;5048738;28;20060;-73
2022/08/26 10:08:24;;;;;;;10.18;8.52;;;;;;;25.85;nan;99334.28;5044530;28;20107;-73
2022/08/26 10:10:51;;;;;;;11.90;9.50;;;;;;;25.92;nan;99336.81;5048334;28;20037;-73
2022/08/26 10:13:31;;;;;;;9.82;8.90;;;;;;;25.99;nan;99335.56;5041003;28;20428;-73
2022/08/26 10:16:07;;;;;;;9.05;8.15;;;;;;;26.06;nan;99333.50;5045342;28;20493;-73
2022/08/26 10:18:44;;;;;;;9.68;7.95;;;;;;;26.14;nan;99328.75;5047098;28;20036;-73
2022/08/26 10:21:16;;;;;;;8.52;7.47;;;;;;;26.25;nan;99331.38;5045631;28;20072;-73
2022/08/26 10:23:48;;;;;;;8.95;8.05;;;;;;;26.29;nan;99327.09;5048860;28;20029;-73
2022/08/26 10:26:16;;;;;;;9.73;6.78;;;;;;;26.33;nan;99322.81;5041896;28;20025;-73
2022/08/26 10:29:12;;;;;;;7.18;6.57;;;;;;;26.41;nan;99325.09;5050422;28;20106;-72
2022/08/26 10:31:53;;;;;;;7.85;7.05;;;;;;;26.47;nan;99324.09;5040447;28;20060;-73
2022/08/26 10:34:19;;;;;;;7.97;7.07;;;;;;;26.45;nan;99323.50;5039954;28;20040;-73
2022/08/26 10:36:55;;;;;;;8.10;6.78;;;;;;;26.49;nan;99324.66;5047765;28;20025;-73
2022/08/26 10:39:36;;;;;;;9.07;7.25;;;;;;;26.47;nan;99324.09;5049123;28;20036;-72
2022/08/26 10:42:18;;;;;;;7.85;7.03;;;;;;;26.48;nan;99319.50;5050054;28;20037;-72
2022/08/26 10:44:49;;;;;;;9.85;7.30;;;;;;;26.47;nan;99313.25;5045345;28;20033;-72
2022/08/26 10:47:20;;;;;;;10.73;7.43;;;;;;;26.48;nan;99320.31;5043326;28;20037;-74
2022/08/26 10:49:49;;;;;;;6.70;6.10;;;;;;;26.51;nan;99304.66;5043981;28;20033;-72
2022/08/26 10:52:28;;;;;;;7.35;6.13;;;;;;;26.46;nan;99303.50;5033399;28;20566;-73
2022/08/26 10:55:05;;;;;;;5.93;5.23;;;;;;;26.49;nan;99297.59;5040345;28;20068;-72
2022/08/26 10:57:53;;;;;;;10.88;5.95;;;;;;;26.49;nan;99292.19;5044284;28;20037;-71
2022/08/26 11:03:12;;;;;;;10.60;6.15;;;;;;;26.52;nan;99284.63;5046567;28;20041;-71
2022/08/26 11:05:38;;;;;;;10.65;5.63;;;;;;;26.52;nan;99293.56;5049092;28;20041;-71
2022/08/26 11:08:19;;;;;;;7.05;6.40;;;;;;;26.49;nan;99289.50;5043496;28;20504;-79
2022/08/26 11:10:50;;;;;;;6.50;5.88;;;;;;;26.49;nan;99285.97;5047858;28;20025;-79
2022/08/26 11:13:16;;;;;;;10.07;5.32;;;;;;;26.48;nan;99282.44;5043768;28;20037;-77
2022/08/26 11:15:42;;;;;;;7.88;5.93;;;;;;;26.52;nan;99277.31;5051433;28;20376;-78
2022/08/26 11:18:39;;;;;;;5.85;5.25;;;;;;;26.55;nan;99281.44;5024461;28;20037;-78
2022/08/26 11:21:46;;;;;;;10.05;6.50;;;;;;;26.56;nan;99275.78;5048454;28;20033;-80
2022/08/26 11:24:45;;;;;;;10.27;6.45;;;;;;;26.52;nan;99271.09;5040775;28;20076;-78
2022/08/26 11:27:33;;;;;;;10.07;6.28;;;;;;;26.49;nan;99267.84;5040266;28;20045;-78
2022/08/26 11:30:11;;;;;;;6.45;5.68;;;;;;;26.52;nan;99260.28;5046755;28;20025;-78
2022/08/26 11:32:37;;;;;;;9.18;5.82;;;;;;;26.53;nan;99256.50;5046698;28;20051;-78
2022/08/26 11:35:06;;;;;;;6.22;5.72;;;;;;;26.56;nan;99256.00;5042727;28;20369;-78
2022/08/26 11:37:41;;;;;;;9.63;5.78;;;;;;;26.61;nan;99258.75;5046474;28;20548;-78
2022/08/26 11:40:10;;;;;;;10.05;5.68;;;;;;;26.64;nan;99258.25;5032587;28;20098;-77
2022/08/26 11:42:48;;;;;;;6.90;5.55;;;;;;;26.64;nan;99252.81;5046595;28;20108;-79
2022/08/26 11:45:38;;;;;;;7.60;5.97;;;;;;;26.63;nan;99251.19;5041915;28;20021;-77
2022/08/26 11:48:19;;;;;;;5.88;5.38;;;;;;;26.67;nan;99249.63;5043212;28;20070;-78
2022/08/26 11:50:56;;;;;;;6.05;5.55;;;;;;;26.66;nan;99239.88;5040022;28;20481;-80
2022/08/26 11:53:24;;;;;;;7.65;5.43;;;;;;;26.70;nan;99246.41;5042671;28;20035;-80
2022/08/26 11:55:52;;;;;;;6.00;4.95;;;;;;;26.76;nan;99238.06;5056164;28;20032;-80
2022/08/26 11:58:20;;;;;;;6.60;5.45;;;;;;;26.83;nan;99235.16;5055927;28;20089;-80
2022/08/26 12:00:53;;;;;;;6.07;5.38;;;;;;;26.89;nan;99231.47;5053467;28;20032;-80
2022/08/26 12:03:25;;;;;;;7.38;5.45;;;;;;;26.94;nan;99230.69;5046488;28;20112;-80
2022/08/26 12:05:52;;;;;;;7.53;5.07;;;;;;;26.98;nan;99232.63;5047516;28;20120;-81
2022/08/26 12:08:24;;;;;;;7.85;5.05;;;;;;;27.05;nan;99224.28;5040528;28;20034;-80
2022/08/26 12:11:02;;;;;;;6.00;4.85;;;;;;;27.14;nan;99220.88;5048792;28;20525;-80
2022/08/26 12:13:27;;;;;;;7.32;5.53;;;;;;;27.20;nan;99222.53;5049037;28;20071;-80
2022/08/26 12:15:58;;;;;;;6.68;6.07;;;;;;;27.21;nan;99226.91;5047475;28;20036;-82
2022/08/26 12:18:33;;;;;;;10.70;6.00;;;;;;;27.20;nan;99230.66;5054997;28;20032;-79
2022/08/26 12:21:09;;;;;;;9.05;5.50;;;;;;;27.24;nan;99231.78;5043040;28;20085;-80
2022/08/26 12:23:34;;;;;;;6.53;5.47;;;;;;;27.29;nan;99229.09;5053782;28;20060;-79
2022/08/26 12:26:12;;;;;;;7.03;5.00;;;;;;;27.34;nan;99239.16;5042929;28;20040;-80
2022/08/26 12:29:02;;;;;;;6.70;4.95;;;;;;;27.39;nan;99232.97;5046060;28;20040;-79
2022/08/26 12:31:31;;;;;;;6.07;4.82;;;;;;;27.44;nan;99235.72;5045281;28;20048;-80
2022/08/26 12:33:59;;;;;;;6.00;4.43;;;;;;;27.46;nan;99238.97;5042957;28;20038;-79
2022/08/26 12:36:32;;;;;;;5.30;4.80;;;;;;;27.47;nan;99235.19;5038934;28;20041;-79
2022/08/26 12:39:22;;;;;;;5.18;4.35;;;;;;;27.54;nan;99241.25;5047384;28;20033;-78
2022/08/26 12:41:59;;;;;;;5.90;4.63;;;;;;;27.60;nan;99232.88;5046740;28;20036;-79
2022/08/26 12:44:43;;;;;;;5.25;4.20;;;;;;;27.69;nan;99225.88;5038288;28;20388;-79
2022/08/26 12:47:14;;;;;;;5.20;4.70;;;;;;;27.80;nan;99218.66;5041328;28;20036;-79
2022/08/26 12:49:42;;;;;;;4.55;4.20;;;;;;;27.90;nan;99223.31;5042296;28;20082;-79
2022/08/26 12:52:28;;;;;;;4.90;4.40;;;;;;;27.98;nan;99220.88;5042319;28;20060;-79
2022/08/26 12:55:06;;;;;;;5.95;4.18;;;;;;;28.04;nan;99214.41;5049392;28;20043;-79
2022/08/26 12:57:36;;;;;;;4.68;4.10;;;;;;;28.09;nan;99222.59;5052457;28;20060;-79
2022/08/26 13:00:40;;;;;;;4.70;4.20;;;;;;;28.16;nan;99218.84;5054352;28;20054;-79
2022/08/26 13:03:28;;;;;;;6.32;4.18;;;;;;;28.28;nan;99230.28;5038871;28;20041;-79
2022/08/26 13:06:09;;;;;;;4.57;4.18;;;;;;;28.35;nan;99214.56;5047192;28;20033;-79
2022/08/26 13:08:39;;;;;;;5.13;3.90;;;;;;;28.41;nan;99219.75;5038710;28;20025;-73
2022/08/26 13:11:29;;;;;;;6.57;4.47;;;;;;;28.51;nan;99219.75;5032659;28;20037;-73
2022/08/26 13:14:16;;;;;;;5.40;4.28;;;;;;;28.54;nan;99223.84;5038418;28;20040;-74
2022/08/26 13:16:42;;;;;;;4.55;3.22;;;;;;;28.54;nan;99218.44;5040722;28;20124;-74
2022/08/26 13:19:11;;;;;;;6.57;4.03;;;;;;;28.62;nan;99209.75;5041459;28;20016;-75
2022/08/26 13:21:48;;;;;;;4.80;4.05;;;;;;;28.92;nan;99197.34;5041096;28;20045;-73
2022/08/26 13:24:16;;;;;;;6.53;4.00;;;;;;;29.36;nan;99195.72;5045745;28;20389;-74
2022/08/26 13:26:44;;;;;;;4.40;3.97;;;;;;;29.62;nan;99197.31;5036532;28;20044;-73
2022/08/26 13:29:10;;;;;;;4.70;3.60;;;;;;;29.79;nan;99190.75;5045438;28;20025;-73
2022/08/26 13:31:38;;;;;;;6.85;3.58;;;;;;;29.91;nan;99183.13;5039599;28;20079;-73
2022/08/26 13:34:04;;;;;;;3.85;3.42;;;;;;;29.89;nan;99177.91;5039301;28;20044;-72
2022/08/26 13:36:29;;;;;;;6.30;3.67;;;;;;;29.76;nan;99175.78;5058352;28;20408;-73
2022/08/26 13:38:55;;;;;;;3.65;3.35;;;;;;;29.57;nan;99172.03;5073566;28;20113;-72
2022/08/26 13:41:21;;;;;;;3.65;3.25;;;;;;;29.39;nan;99170.72;5064097;28;20036;-72
2022/08/26 13:43:47;;;;;;;5.00;3.22;;;;;;;29.23;nan;99171.78;5062368;28;20083;-72
2022/08/26 13:46:13;;;;;;;3.55;3.22;;;;;;;29.08;nan;99166.38;5061014;28;20033;-72
2022/08/26 13:48:39;;;;;;;3.70;3.40;;;;;;;28.97;nan;99156.59;5061360;28;20036;-72
2022/08/26 13:51:05;;;;;;;4.57;3.83;;;;;;;28.83;nan;99159.84;5070153;28;20028;-73
2022/08/26 13:53:32;;;;;;;7.78;3.50;;;;;;;28.76;nan;99145.72;5061030;28;20075;-73
2022/08/26 13:56:00;;;;;;;3.50;3.20;;;;;;;28.71;nan;99142.97;5068304;28;20472;-73
2022/08/26 13:58:28;;;;;;;4.85;3.25;;;;;;;28.73;nan;99140.84;5060525;28;20475;-72
2022/08/26 14:00:56;;;;;;;3.25;2.97;;;;;;;28.85;nan;99144.09;5063876;28;20115;-73
2022/08/26 14:03:23;;;;;;;3.83;3.08;;;;;;;29.35;nan;99139.72;5064938;28;20035;-73
2022/08/26 14:05:50;;;;;;;3.70;3.20;;;;;;;29.55;nan;99142.41;5073150;28;20032;-72
2022/08/26 14:08:17;;;;;;;3.90;3.03;;;;;;;29.56;nan;99141.31;5065921;28;20063;-72
2022/08/26 14:10:43;;;;;;;4.30;2.72;;;;;;;29.47;nan;99140.25;5064704;28;20020;-70
2022/08/26 14:13:08;;;;;;;5.28;2.53;;;;;;;29.41;nan;99135.91;5072657;28;20132;-74
2022/08/26 14:15:36;;;;;;;5.43;2.65;;;;;;;29.74;nan;99136.38;5072184;28;20451;-71
2022/08/26 14:18:05;;;;;;;6.75;3.00;;;;;;;30.52;nan;99132.72;5065310;28;20112;-73
2022/08/26 14:20:34;;;;;;;3.05;2.38;;;;;;;30.96;nan;99129.13;5067627;28;20032;-73
2022/08/26 14:23:02;;;;;;;3.00;2.67;;;;;;;31.38;nan;99135.81;5030371;28;20044;-73
2022/08/26 14:25:29;;;;;;;6.23;3.17;;;;;;;31.99;nan;99142.22;5071014;28;20060;-72
2022/08/26 14:27:58;;;;;;;2.90;2.70;;;;;;;32.29;nan;99140.19;5066681;28;20032;-72
2022/08/26 14:30:24;;;;;;;2.47;2.28;;;;;;;32.19;nan;99134.91;5068074;28;20025;-73
2022/08/26 14:32:54;;;;;;;3.00;2.20;;;;;;;31.81;nan;99134.78;5052142;28;20562;-73
2022/08/26 14:35:23;;;;;;;3.22;2.92;;;;;;;31.33;nan;99135.88;5054322;28;20037;-71
2022/08/26 14:37:50;;;;;;;2.90;2.55;;;;;;;30.88;nan;99132.44;5062985;28;20480;-71
2022/08/26 14:40:17;;;;;;;3.15;2.67;;;;;;;30.50;nan;99126.75;5072069;28;20052;-71
2022/08/26 14:42:48;;;;;;;3.33;2.40;;;;;;;30.16;nan;99130.50;5071930;28;20033;-72
2022/08/26 14:45:19;;;;;;;3.55;2.78;;;;;;;29.94;nan;99130.84;5066025;28;20031;-73
2022/08/26 14:47:47;;;;;;;2.65;2.45;;;;;;;29.75;nan;99133.34;5068780;28;20036;-72
2022/08/26 14:50:16;;;;;;;3.30;2.60;;;;;;;29.59;nan;99127.16;5059047;28;20043;-73
2022/08/26 14:55:40;;;;;;;2.55;2.25;;;;;;;29.36;nan;99138.66;4995809;28;20557;-72
2022/08/26 14:58:06;;;;;;;3.75;2.05;;;;;;;29.30;nan;99139.72;5071555;28;20039;-72
2022/08/26 15:00:32;;;;;;;2.72;2.53;;;;;;;29.26;nan;99138.63;5070736;28;20032;-71
2022/08/26 15:02:57;;;;;;;4.65;2.55;;;;;;;29.21;nan;99135.94;5071149;28;20074;-72
2022/08/26 15:05:24;;;;;;;3.70;2.85;;;;;;;29.16;nan;99138.66;5053995;28;20043;-72
2022/08/26 15:07:50;;;;;;;3.13;2.47;;;;;;;29.13;nan;99133.75;5059220;28;20503;-72
2022/08/26 15:10:17;;;;;;;4.18;2.60;;;;;;;29.10;nan;99132.38;5067352;28;20025;-71
2022/08/26 15:12:43;;;;;;;3.00;2.40;;;;;;;29.04;nan;99133.47;5060000;28;20472;-72
2022/08/26 15:15:10;;;;;;;4.82;3.38;;;;;;;29.01;nan;99127.78;5051090;28;20501;-71
2022/08/26 15:17:36;;;;;;;4.03;2.70;;;;;;;28.98;nan;99133.78;5063373;28;20044;-73
2022/08/26 15:20:04;;;;;;;4.88;2.50;;;;;;;28.92;nan;99128.34;5058713;28;20494;-73
2022/08/26 15:22:30;;;;;;;5.57;2.80;;;;;;;28.92;nan;99136.47;5062571;28;20025;-72
2022/08/26 15:24:57;;;;;;;5.35;2.60;;;;;;;28.90;nan;99135.97;5062941;28;20036;-73
2022/08/26 15:27:23;;;;;;;3.00;2.80;;;;;;;28.85;nan;99133.25;5045087;28;20044;-73
2022/08/26 15:29:48;;;;;;;2.85;2.40;;;;;;;28.84;nan;99137.03;5059736;28;20106;-72
2022/08/26 15:32:14;;;;;;;2.58;2.38;;;;;;;28.83;nan;99140.84;5060142;28;20029;-72
2022/08/26 15:34:40;;;;;;;4.15;2.70;;;;;;;28.82;nan;99136.50;5065154;28;20063;-73
2022/08/26 15:37:05;;;;;;;3.55;2.50;;;;;;;28.76;nan;99137.56;5061401;28;20061;-72
2022/08/26 15:39:31;;;;;;;4.05;2.40;;;;;;;28.75;nan;99138.66;5065519;28;20032;-73
2022/08/26 15:41:58;;;;;;;5.20;2.70;;;;;;;28.74;nan;99139.78;5064846;28;20032;-72
2022/08/26 15:44:25;;;;;;;4.18;3.03;;;;;;;28.71;nan;99142.97;5064612;28;20119;-71
2022/08/26 15:46:52;;;;;;;6.75;3.03;;;;;;;28.69;nan;99142.41;5057220;28;20118;-73
2022/08/26 15:49:18;;;;;;;3.35;2.85;;;;;;;28.67;nan;99133.75;5051259;28;20039;-73
2022/08/26 15:51:45;;;;;;;5.60;3.17;;;;;;;28.64;nan;99139.72;5063237;28;20028;-73
2022/08/26 15:54:12;;;;;;;7.25;2.70;;;;;;;28.46;nan;99148.38;5052861;28;20799;-83